^^
Station Historical Data
Daily Summary for February 8, 2018 Units:  Both    English   Metric
« Previous Day
Next Day »
Daily Weekly Monthly Yearly Custom
  High: Low: Average:
Temperature: TemperatureF °F /  -17.8 °C 64.9 °F /  18.3 °C 73.5 °F /  23.1 °C
Dew Point: DewpointF °F /  -17.8 °C 50.9 °F /  10.5 °C 57.9 °F /  14.4 °C
Humidity: Humidity% 28% 61%
Wind Speed: WindSpeedMPHmph /  0km/h - 1.2mph /  1.9km/h
Wind Gust: WindSpeedGustMPHmph /  0km/h - -
Wind- - SSW
Pressure: PressureIn in /  0 hPa 29.56 in /  1000.9 hPa -
Precipitation: 0.09 in /  2.29 mm    
Historical Graphs
 
 
Tabular Data for February 8, 2018
Time Temperature Dew Point Pressure Wind Wind Speed Wind Gust Humidity Rainfall Rate (Hourly) solar Conditions
TemperatureF °F /  -17.8 °C DewpointF °F /  -17.8 °C PressureInin /  0hPa Calm     Humidity% HourlyPrecipInin /  0mm SolarRadiationWatts/m^2 W/m2 Conditions
00:01 72.5 °F /  22.5 °C 57.7 °F /  14.3 °C 29.61in /  1002.6hPa Calm     60% 0.00in /  0mm 0.0 W/m2
00:06 72.5 °F /  22.5 °C 57.7 °F /  14.3 °C 29.61in /  1002.6hPa Calm     60% 0.00in /  0mm 0.0 W/m2
00:11 72.5 °F /  22.5 °C 57.7 °F /  14.3 °C 29.61in /  1002.6hPa Calm   1.0mph /  1.6km/h 60% 0.00in /  0mm 0.0 W/m2
00:17 72.7 °F /  22.6 °C 57.9 °F /  14.4 °C 29.61in /  1002.6hPa SE 0.9mph /  1.4km/h 3.0mph /  4.8km/h 60% 0.00in /  0mm 0.0 W/m2
00:22 72.7 °F /  22.6 °C 57.6 °F /  14.2 °C 29.61in /  1002.6hPa SE 0.9mph /  1.4km/h 2.0mph /  3.2km/h 59% 0.00in /  0mm 0.0 W/m2
00:27 72.7 °F /  22.6 °C 57.6 °F /  14.2 °C 29.61in /  1002.6hPa SE 0.9mph /  1.4km/h 3.0mph /  4.8km/h 59% 0.00in /  0mm 0.0 W/m2
00:32 72.9 °F /  22.7 °C 57.2 °F /  14 °C 29.62in /  1002.9hPa SE 4.0mph /  6.4km/h 7.0mph /  11.3km/h 58% 0.00in /  0mm 0.0 W/m2
00:37 73.0 °F /  22.8 °C 56.5 °F /  13.6 °C 29.62in /  1002.9hPa Calm   6.0mph /  9.7km/h 56% 0.01in /  0.25mm 0.0 W/m2
00:42 73.6 °F /  23.1 °C 54.9 °F /  12.7 °C 29.62in /  1002.9hPa NE 4.9mph /  7.9km/h 10.0mph /  16.1km/h 52% 0.01in /  0.25mm 0.0 W/m2
00:47 73.9 °F /  23.3 °C 56.8 °F /  13.8 °C 29.62in /  1002.9hPa East 4.9mph /  7.9km/h 6.0mph /  9.7km/h 55% 0.01in /  0.25mm 0.0 W/m2
00:52 73.8 °F /  23.2 °C 57.0 °F /  13.9 °C 29.62in /  1002.9hPa East 2.0mph /  3.2km/h 7.0mph /  11.3km/h 56% 0.01in /  0.25mm 0.0 W/m2
00:57 73.6 °F /  23.1 °C 57.4 °F /  14.1 °C 29.63in /  1003.3hPa ESE 2.9mph /  4.7km/h 10.0mph /  16.1km/h 57% 0.01in /  0.25mm 0.0 W/m2
01:03 73.0 °F /  22.8 °C 57.4 °F /  14.1 °C 29.63in /  1003.3hPa East 6.9mph /  11.1km/h 9.0mph /  14.5km/h 58% 0.01in /  0.25mm 0.0 W/m2
01:08 72.9 °F /  22.7 °C 58.1 °F /  14.5 °C 29.64in /  1003.6hPa ENE 11.0mph /  17.7km/h 13.0mph /  20.9km/h 60% 0.01in /  0.25mm 0.0 W/m2
01:13 72.3 °F /  22.4 °C 58.6 °F /  14.8 °C 29.64in /  1003.6hPa NE 6.9mph /  11.1km/h 14.0mph /  22.5km/h 62% 0.01in /  0.25mm 0.0 W/m2
01:18 71.6 °F /  22 °C 58.3 °F /  14.6 °C 29.64in /  1003.6hPa NNE 4.0mph /  6.4km/h 14.0mph /  22.5km/h 63% 0.01in /  0.25mm 0.0 W/m2
01:23 71.1 °F /  21.7 °C 58.6 °F /  14.8 °C 29.64in /  1003.6hPa ENE 4.0mph /  6.4km/h 13.0mph /  20.9km/h 65% 0.01in /  0.25mm 0.0 W/m2
01:28 70.5 °F /  21.4 °C 59.0 °F /  15 °C 29.64in /  1003.6hPa ENE 4.0mph /  6.4km/h 8.0mph /  12.9km/h 67% 0.01in /  0.25mm 0.0 W/m2
01:33 70.3 °F /  21.3 °C 58.8 °F /  14.9 °C 29.64in /  1003.6hPa East 2.0mph /  3.2km/h 10.0mph /  16.1km/h 67% 0.01in /  0.25mm 0.0 W/m2
01:38 70.0 °F /  21.1 °C 59.4 °F /  15.2 °C 29.63in /  1003.3hPa Calm   5.0mph /  8km/h 69% 0.00in /  0mm 0.0 W/m2
01:43 69.6 °F /  20.9 °C 59.0 °F /  15 °C 29.63in /  1003.3hPa East 2.0mph /  3.2km/h 7.0mph /  11.3km/h 69% 0.00in /  0mm 0.0 W/m2
01:48 69.3 °F /  20.7 °C 59.0 °F /  15 °C 29.63in /  1003.3hPa NE 2.0mph /  3.2km/h 8.0mph /  12.9km/h 70% 0.00in /  0mm 0.0 W/m2
01:54 68.9 °F /  20.5 °C 59.2 °F /  15.1 °C 29.63in /  1003.3hPa ESE 2.9mph /  4.7km/h 7.0mph /  11.3km/h 71% 0.00in /  0mm 0.0 W/m2
01:59 68.7 °F /  20.4 °C 59.0 °F /  15 °C 29.63in /  1003.3hPa ENE 2.0mph /  3.2km/h 6.0mph /  9.7km/h 71% 0.00in /  0mm 0.0 W/m2
02:04 68.5 °F /  20.3 °C 59.2 °F /  15.1 °C 29.63in /  1003.3hPa Calm   6.0mph /  9.7km/h 72% 0.00in /  0mm 0.0 W/m2
02:09 68.4 °F /  20.2 °C 59.0 °F /  15 °C 29.63in /  1003.3hPa Calm   7.0mph /  11.3km/h 72% 0.00in /  0mm 0.0 W/m2
02:14 68.2 °F /  20.1 °C 58.8 °F /  14.9 °C 29.63in /  1003.3hPa East 2.0mph /  3.2km/h 6.0mph /  9.7km/h 72% 0.00in /  0mm 0.0 W/m2
02:19 68.2 °F /  20.1 °C 58.5 °F /  14.7 °C 29.63in /  1003.3hPa North 2.0mph /  3.2km/h 4.0mph /  6.4km/h 71% 0.00in /  0mm 0.0 W/m2
02:24 68.2 °F /  20.1 °C 58.5 °F /  14.7 °C 29.63in /  1003.3hPa Calm   3.0mph /  4.8km/h 71% 0.00in /  0mm 0.0 W/m2
02:29 68.2 °F /  20.1 °C 58.5 °F /  14.7 °C 29.63in /  1003.3hPa Calm   4.0mph /  6.4km/h 71% 0.00in /  0mm 0.0 W/m2
02:34 68.2 °F /  20.1 °C 58.1 °F /  14.5 °C 29.63in /  1003.3hPa SE 2.9mph /  4.7km/h 5.0mph /  8km/h 70% 0.00in /  0mm 0.0 W/m2
02:40 68.2 °F /  20.1 °C 58.1 °F /  14.5 °C 29.62in /  1002.9hPa Calm   1.0mph /  1.6km/h 70% 0.00in /  0mm 0.0 W/m2
02:45 68.0 °F /  20 °C 57.9 °F /  14.4 °C 29.62in /  1002.9hPa Calm   4.0mph /  6.4km/h 70% 0.00in /  0mm 0.0 W/m2
02:50 68.0 °F /  20 °C 57.9 °F /  14.4 °C 29.62in /  1002.9hPa Calm   1.0mph /  1.6km/h 70% 0.00in /  0mm 0.0 W/m2
02:55 68.0 °F /  20 °C 57.9 °F /  14.4 °C 29.62in /  1002.9hPa East 0.9mph /  1.4km/h 3.0mph /  4.8km/h 70% 0.00in /  0mm 0.0 W/m2
03:00 68.0 °F /  20 °C 57.9 °F /  14.4 °C 29.62in /  1002.9hPa Calm   2.0mph /  3.2km/h 70% 0.00in /  0mm 0.0 W/m2
03:05 67.8 °F /  19.9 °C 57.7 °F /  14.3 °C 29.62in /  1002.9hPa Calm   2.0mph /  3.2km/h 70% 0.00in /  0mm 0.0 W/m2
03:10 67.8 °F /  19.9 °C 57.7 °F /  14.3 °C 29.61in /  1002.6hPa ESE 0.9mph /  1.4km/h 3.0mph /  4.8km/h 70% 0.00in /  0mm 0.0 W/m2
03:15 67.8 °F /  19.9 °C 57.7 °F /  14.3 °C 29.61in /  1002.6hPa Calm   3.0mph /  4.8km/h 70% 0.00in /  0mm 0.0 W/m2
03:20 67.6 °F /  19.8 °C 57.6 °F /  14.2 °C 29.61in /  1002.6hPa East 0.9mph /  1.4km/h 3.0mph /  4.8km/h 70% 0.00in /  0mm 0.0 W/m2
03:26 67.6 °F /  19.8 °C 57.6 °F /  14.2 °C 29.61in /  1002.6hPa ESE 0.9mph /  1.4km/h 1.0mph /  1.6km/h 70% 0.00in /  0mm 0.0 W/m2
03:31 67.6 °F /  19.8 °C 57.6 °F /  14.2 °C 29.61in /  1002.6hPa Calm   4.0mph /  6.4km/h 70% 0.00in /  0mm 0.0 W/m2
03:36 67.6 °F /  19.8 °C 57.6 °F /  14.2 °C 29.61in /  1002.6hPa Calm   4.0mph /  6.4km/h 70% 0.00in /  0mm 0.0 W/m2
03:41 67.6 °F /  19.8 °C 57.6 °F /  14.2 °C 29.61in /  1002.6hPa NE 2.0mph /  3.2km/h 3.0mph /  4.8km/h 70% 0.00in /  0mm 0.0 W/m2
03:46 67.6 °F /  19.8 °C 57.6 °F /  14.2 °C 29.61in /  1002.6hPa ENE 2.0mph /  3.2km/h 3.0mph /  4.8km/h 70% 0.00in /  0mm 0.0 W/m2
03:51 67.5 °F /  19.7 °C 57.4 °F /  14.1 °C 29.60in /  1002.3hPa Calm   2.0mph /  3.2km/h 70% 0.00in /  0mm 0.0 W/m2
03:56 67.5 °F /  19.7 °C 57.4 °F /  14.1 °C 29.60in /  1002.3hPa Calm   1.0mph /  1.6km/h 70% 0.00in /  0mm 0.0 W/m2
04:01 67.5 °F /  19.7 °C 57.4 °F /  14.1 °C 29.60in /  1002.3hPa Calm   2.0mph /  3.2km/h 70% 0.00in /  0mm 0.0 W/m2
04:06 67.3 °F /  19.6 °C 57.2 °F /  14 °C 29.60in /  1002.3hPa NE 0.9mph /  1.4km/h 4.0mph /  6.4km/h 70% 0.00in /  0mm 0.0 W/m2
04:12 67.1 °F /  19.5 °C 57.0 °F /  13.9 °C 29.60in /  1002.3hPa ENE 2.9mph /  4.7km/h 3.0mph /  4.8km/h 70% 0.00in /  0mm 0.0 W/m2
04:17 66.9 °F /  19.4 °C 57.2 °F /  14 °C 29.60in /  1002.3hPa Calm   1.0mph /  1.6km/h 71% 0.00in /  0mm 0.0 W/m2
04:22 66.7 °F /  19.3 °C 57.0 °F /  13.9 °C 29.60in /  1002.3hPa Calm   1.0mph /  1.6km/h 71% 0.00in /  0mm 0.0 W/m2
04:27 66.7 °F /  19.3 °C 57.0 °F /  13.9 °C 29.60in /  1002.3hPa Calm   2.0mph /  3.2km/h 71% 0.00in /  0mm 0.0 W/m2
04:32 66.6 °F /  19.2 °C 57.2 °F /  14 °C 29.60in /  1002.3hPa Calm     72% 0.00in /  0mm 0.0 W/m2
04:37 66.6 °F /  19.2 °C 57.2 °F /  14 °C 29.59in /  1001.9hPa NE 0.9mph /  1.4km/h 1.0mph /  1.6km/h 72% 0.00in /  0mm 0.0 W/m2
04:42 66.4 °F /  19.1 °C 57.0 °F /  13.9 °C 29.59in /  1001.9hPa Calm   2.0mph /  3.2km/h 72% 0.00in /  0mm 0.0 W/m2
04:47 66.4 °F /  19.1 °C 57.0 °F /  13.9 °C 29.59in /  1001.9hPa Calm   1.0mph /  1.6km/h 72% 0.00in /  0mm 0.0 W/m2
04:53 66.4 °F /  19.1 °C 57.4 °F /  14.1 °C 29.59in /  1001.9hPa Calm     73% 0.00in /  0mm 0.0 W/m2
04:59 66.2 °F /  19 °C 57.2 °F /  14 °C 29.59in /  1001.9hPa Calm   1.0mph /  1.6km/h 73% 0.00in /  0mm 0.0 W/m2
05:04 66.2 °F /  19 °C 57.2 °F /  14 °C 29.59in /  1001.9hPa Calm     73% 0.00in /  0mm 0.0 W/m2
05:09 66.0 °F /  18.9 °C 57.2 °F /  14 °C 29.59in /  1001.9hPa Calm     73% 0.00in /  0mm 0.0 W/m2
05:14 66.2 °F /  19 °C 56.8 °F /  13.8 °C 29.59in /  1001.9hPa Calm     72% 0.00in /  0mm 0.0 W/m2
05:19 66.2 °F /  19 °C 56.8 °F /  13.8 °C 29.60in /  1002.3hPa Calm     72% 0.00in /  0mm 0.0 W/m2
05:24 66.4 °F /  19.1 °C 57.0 °F /  13.9 °C 29.59in /  1001.9hPa Calm     72% 0.00in /  0mm 0.0 W/m2
05:29 66.4 °F /  19.1 °C 57.0 °F /  13.9 °C 29.60in /  1002.3hPa Calm     72% 0.00in /  0mm 0.0 W/m2
05:34 66.4 °F /  19.1 °C 57.0 °F /  13.9 °C 29.60in /  1002.3hPa Calm     72% 0.00in /  0mm 0.0 W/m2
05:40 66.4 °F /  19.1 °C 57.0 °F /  13.9 °C 29.59in /  1001.9hPa Calm     72% 0.00in /  0mm 0.0 W/m2
05:45 66.4 °F /  19.1 °C 57.0 °F /  13.9 °C 29.59in /  1001.9hPa Calm     72% 0.00in /  0mm 0.0 W/m2
05:50 66.4 °F /  19.1 °C 57.0 °F /  13.9 °C 29.59in /  1001.9hPa Calm     72% 0.00in /  0mm 0.0 W/m2
05:55 66.4 °F /  19.1 °C 57.0 °F /  13.9 °C 29.59in /  1001.9hPa Calm     72% 0.00in /  0mm 0.0 W/m2
06:00 66.4 °F /  19.1 °C 56.7 °F /  13.7 °C 29.59in /  1001.9hPa Calm     71% 0.00in /  0mm 0.0 W/m2
06:05 66.0 °F /  18.9 °C 56.3 °F /  13.5 °C 29.60in /  1002.3hPa Calm     71% 0.00in /  0mm 0.0 W/m2
06:10 66.0 °F /  18.9 °C 56.7 °F /  13.7 °C 29.60in /  1002.3hPa Calm     72% 0.00in /  0mm 0.0 W/m2
06:15 65.8 °F /  18.8 °C 57.0 °F /  13.9 °C 29.60in /  1002.3hPa Calm     73% 0.00in /  0mm 0.0 W/m2
06:21 65.8 °F /  18.8 °C 57.0 °F /  13.9 °C 29.60in /  1002.3hPa Calm     73% 0.00in /  0mm 0.0 W/m2
06:26 65.7 °F /  18.7 °C 56.8 °F /  13.8 °C 29.60in /  1002.3hPa Calm     73% 0.00in /  0mm 0.0 W/m2
06:31 65.7 °F /  18.7 °C 56.8 °F /  13.8 °C 29.60in /  1002.3hPa Calm     73% 0.00in /  0mm 0.0 W/m2
06:36 65.5 °F /  18.6 °C 56.7 °F /  13.7 °C 29.60in /  1002.3hPa Calm     73% 0.00in /  0mm 0.0 W/m2
06:41 65.5 °F /  18.6 °C 56.7 °F /  13.7 °C 29.61in /  1002.6hPa Calm     73% 0.00in /  0mm 5.0 W/m2
06:46 65.3 °F /  18.5 °C 56.5 °F /  13.6 °C 29.60in /  1002.3hPa Calm     73% 0.00in /  0mm 9.0 W/m2
06:51 65.1 °F /  18.4 °C 56.3 °F /  13.5 °C 29.61in /  1002.6hPa Calm     73% 0.00in /  0mm 11.0 W/m2
06:56 65.1 °F /  18.4 °C 56.3 °F /  13.5 °C 29.61in /  1002.6hPa Calm     73% 0.00in /  0mm 14.0 W/m2
07:02 64.9 °F /  18.3 °C 56.5 °F /  13.6 °C 29.61in /  1002.6hPa Calm   1.0mph /  1.6km/h 74% 0.00in /  0mm 19.0 W/m2
07:07 64.9 °F /  18.3 °C 56.5 °F /  13.6 °C 29.61in /  1002.6hPa Calm     74% 0.00in /  0mm 23.0 W/m2
07:12 65.1 °F /  18.4 °C 56.7 °F /  13.7 °C 29.61in /  1002.6hPa Calm     74% 0.00in /  0mm 30.0 W/m2
07:17 65.1 °F /  18.4 °C 56.7 °F /  13.7 °C 29.61in /  1002.6hPa Calm     74% 0.00in /  0mm 37.0 W/m2
07:22 65.3 °F /  18.5 °C 56.5 °F /  13.6 °C 29.61in /  1002.6hPa Calm     73% 0.00in /  0mm 47.0 W/m2
07:27 65.5 °F /  18.6 °C 56.7 °F /  13.7 °C 29.61in /  1002.6hPa Calm     73% 0.00in /  0mm 56.0 W/m2
07:32 65.7 °F /  18.7 °C 56.8 °F /  13.8 °C 29.62in /  1002.9hPa Calm     73% 0.00in /  0mm 69.0 W/m2
07:37 65.8 °F /  18.8 °C 56.5 °F /  13.6 °C 29.62in /  1002.9hPa Calm     72% 0.00in /  0mm 79.0 W/m2
07:42 66.2 °F /  19 °C 56.5 °F /  13.6 °C 29.62in /  1002.9hPa Calm     71% 0.00in /  0mm 93.0 W/m2
07:48 66.6 °F /  19.2 °C 57.2 °F /  14 °C 29.62in /  1002.9hPa Calm     72% 0.00in /  0mm 100.0 W/m2
07:53 66.9 °F /  19.4 °C 56.8 °F /  13.8 °C 29.62in /  1002.9hPa Calm   1.0mph /  1.6km/h 70% 0.00in /  0mm 105.0 W/m2
07:58 67.3 °F /  19.6 °C 57.2 °F /  14 °C 29.62in /  1002.9hPa Calm     70% 0.00in /  0mm 107.0 W/m2
08:03 67.5 °F /  19.7 °C 56.5 °F /  13.6 °C 29.63in /  1003.3hPa Calm     68% 0.00in /  0mm 120.0 W/m2
08:08 67.8 °F /  19.9 °C 56.8 °F /  13.8 °C 29.62in /  1002.9hPa Calm     68% 0.00in /  0mm 114.0 W/m2
08:13 68.4 °F /  20.2 °C 57.0 °F /  13.9 °C 29.62in /  1002.9hPa Calm     67% 0.00in /  0mm 90.0 W/m2
08:19 69.1 °F /  20.6 °C 56.8 °F /  13.8 °C 29.63in /  1003.3hPa Calm     65% 0.00in /  0mm 60.0 W/m2
08:24 69.4 °F /  20.8 °C 56.7 °F /  13.7 °C 29.63in /  1003.3hPa Calm   1.0mph /  1.6km/h 64% 0.00in /  0mm 58.0 W/m2
08:29 69.8 °F /  21 °C 56.7 °F /  13.7 °C 29.63in /  1003.3hPa Calm     63% 0.00in /  0mm 62.0 W/m2
08:34 70.3 °F /  21.3 °C 56.7 °F /  13.7 °C 29.63in /  1003.3hPa Calm   3.0mph /  4.8km/h 62% 0.00in /  0mm 265.0 W/m2
08:40 70.9 °F /  21.6 °C 56.8 °F /  13.8 °C 29.63in /  1003.3hPa West 0.9mph /  1.4km/h 2.0mph /  3.2km/h 61% 0.00in /  0mm 446.0 W/m2
08:45 71.2 °F /  21.8 °C 56.7 °F /  13.7 °C 29.63in /  1003.3hPa Calm   2.0mph /  3.2km/h 60% 0.00in /  0mm 468.0 W/m2
08:50 71.8 °F /  22.1 °C 57.2 °F /  14 °C 29.64in /  1003.6hPa SW 0.9mph /  1.4km/h 2.0mph /  3.2km/h 60% 0.00in /  0mm 483.0 W/m2
08:55 72.5 °F /  22.5 °C 57.4 °F /  14.1 °C 29.64in /  1003.6hPa Calm   2.0mph /  3.2km/h 59% 0.00in /  0mm 504.0 W/m2
09:00 73.4 °F /  23 °C 57.7 °F /  14.3 °C 29.64in /  1003.6hPa NW 2.0mph /  3.2km/h 2.0mph /  3.2km/h 58% 0.00in /  0mm 536.0 W/m2
09:05 74.3 °F /  23.5 °C 57.6 °F /  14.2 °C 29.64in /  1003.6hPa Calm   3.0mph /  4.8km/h 56% 0.00in /  0mm 589.0 W/m2
09:10 75.0 °F /  23.9 °C 57.7 °F /  14.3 °C 29.64in /  1003.6hPa Calm   2.0mph /  3.2km/h 55% 0.00in /  0mm 717.0 W/m2
09:15 75.7 °F /  24.3 °C 57.4 °F /  14.1 °C 29.64in /  1003.6hPa WSW 0.9mph /  1.4km/h 6.0mph /  9.7km/h 53% 0.00in /  0mm 770.0 W/m2
09:21 76.5 °F /  24.7 °C 57.6 °F /  14.2 °C 29.64in /  1003.6hPa WNW 0.9mph /  1.4km/h 4.0mph /  6.4km/h 52% 0.00in /  0mm 854.0 W/m2
09:26 77.2 °F /  25.1 °C 57.7 °F /  14.3 °C 29.64in /  1003.6hPa NNW 2.0mph /  3.2km/h 4.0mph /  6.4km/h 51% 0.00in /  0mm 557.0 W/m2
09:31 77.7 °F /  25.4 °C 57.0 °F /  13.9 °C 29.64in /  1003.6hPa Calm   3.0mph /  4.8km/h 49% 0.00in /  0mm 533.0 W/m2
09:36 78.3 °F /  25.7 °C 57.6 °F /  14.2 °C 29.64in /  1003.6hPa SW 0.9mph /  1.4km/h 2.0mph /  3.2km/h 49% 0.00in /  0mm 418.0 W/m2
09:41 78.4 °F /  25.8 °C 57.2 °F /  14 °C 29.64in /  1003.6hPa NNW 2.9mph /  4.7km/h 3.0mph /  4.8km/h 48% 0.00in /  0mm 452.0 W/m2
09:46 79.0 °F /  26.1 °C 57.0 °F /  13.9 °C 29.64in /  1003.6hPa WNW 2.9mph /  4.7km/h 3.0mph /  4.8km/h 47% 0.00in /  0mm 550.0 W/m2
09:51 79.5 °F /  26.4 °C 57.6 °F /  14.2 °C 29.64in /  1003.6hPa Calm   4.0mph /  6.4km/h 47% 0.00in /  0mm 459.0 W/m2
09:56 79.9 °F /  26.6 °C 57.2 °F /  14 °C 29.64in /  1003.6hPa NNW 0.9mph /  1.4km/h 3.0mph /  4.8km/h 46% 0.00in /  0mm 828.0 W/m2
10:02 80.2 °F /  26.8 °C 57.0 °F /  13.9 °C 29.64in /  1003.6hPa WNW 4.0mph /  6.4km/h 6.0mph /  9.7km/h 45% 0.00in /  0mm 722.0 W/m2
10:07 80.2 °F /  26.8 °C 58.1 °F /  14.5 °C 29.63in /  1003.3hPa West 2.9mph /  4.7km/h 5.0mph /  8km/h 47% 0.00in /  0mm 763.0 W/m2
10:13 80.1 °F /  26.7 °C 57.4 °F /  14.1 °C 29.63in /  1003.3hPa SW 2.9mph /  4.7km/h 7.0mph /  11.3km/h 46% 0.00in /  0mm 758.0 W/m2
10:18 80.1 °F /  26.7 °C 57.4 °F /  14.1 °C 29.63in /  1003.3hPa NNW 6.0mph /  9.7km/h 6.0mph /  9.7km/h 46% 0.00in /  0mm 777.0 W/m2
10:23 80.8 °F /  27.1 °C 58.1 °F /  14.5 °C 29.64in /  1003.6hPa WNW 4.0mph /  6.4km/h 5.0mph /  8km/h 46% 0.00in /  0mm 786.0 W/m2
10:28 81.1 °F /  27.3 °C 57.2 °F /  14 °C 29.63in /  1003.3hPa NNE 2.0mph /  3.2km/h 6.0mph /  9.7km/h 44% 0.00in /  0mm 807.0 W/m2
10:33 81.7 °F /  27.6 °C 57.6 °F /  14.2 °C 29.63in /  1003.3hPa Calm   6.0mph /  9.7km/h 44% 0.00in /  0mm 828.0 W/m2
10:38 82.0 °F /  27.8 °C 57.4 °F /  14.1 °C 29.63in /  1003.3hPa NNW 4.9mph /  7.9km/h 7.0mph /  11.3km/h 43% 0.00in /  0mm 877.0 W/m2
10:44 82.6 °F /  28.1 °C 56.5 °F /  13.6 °C 29.63in /  1003.3hPa NNW 4.0mph /  6.4km/h 6.0mph /  9.7km/h 41% 0.00in /  0mm 891.0 W/m2
10:49 82.8 °F /  28.2 °C 56.7 °F /  13.7 °C 29.63in /  1003.3hPa NNW 0.9mph /  1.4km/h 4.0mph /  6.4km/h 41% 0.00in /  0mm 895.0 W/m2
10:54 83.1 °F /  28.4 °C 57.0 °F /  13.9 °C 29.63in /  1003.3hPa Calm   7.0mph /  11.3km/h 41% 0.00in /  0mm 933.0 W/m2
10:59 83.7 °F /  28.7 °C 56.8 °F /  13.8 °C 29.63in /  1003.3hPa North 8.1mph /  13km/h 8.1mph /  13km/h 40% 0.00in /  0mm 926.0 W/m2
11:05 84.4 °F /  29.1 °C 56.7 °F /  13.7 °C 29.63in /  1003.3hPa North 2.9mph /  4.7km/h 8.0mph /  12.9km/h 39% 0.00in /  0mm 940.0 W/m2
11:10 84.7 °F /  29.3 °C 57.0 °F /  13.9 °C 29.63in /  1003.3hPa WSW 4.0mph /  6.4km/h 7.0mph /  11.3km/h 39% 0.00in /  0mm 951.0 W/m2
11:15 84.7 °F /  29.3 °C 56.3 °F /  13.5 °C 29.63in /  1003.3hPa NNW 4.0mph /  6.4km/h 8.0mph /  12.9km/h 38% 0.00in /  0mm 933.0 W/m2
11:20 84.7 °F /  29.3 °C 56.3 °F /  13.5 °C 29.62in /  1002.9hPa SW 0.9mph /  1.4km/h 6.0mph /  9.7km/h 38% 0.00in /  0mm 990.0 W/m2
11:25 84.0 °F /  28.9 °C 55.8 °F /  13.2 °C 29.62in /  1002.9hPa North 4.0mph /  6.4km/h 15.0mph /  24.1km/h 38% 0.00in /  0mm 1065.0 W/m2
11:30 84.7 °F /  29.3 °C 55.6 °F /  13.1 °C 29.62in /  1002.9hPa North 4.0mph /  6.4km/h 10.0mph /  16.1km/h 37% 0.00in /  0mm 1099.0 W/m2
11:35 84.7 °F /  29.3 °C 56.3 °F /  13.5 °C 29.62in /  1002.9hPa NNE 6.0mph /  9.7km/h 8.0mph /  12.9km/h 38% 0.00in /  0mm 1113.0 W/m2
11:40 85.3 °F /  29.6 °C 56.1 °F /  13.4 °C 29.62in /  1002.9hPa NW 2.9mph /  4.7km/h 10.0mph /  16.1km/h 37% 0.00in /  0mm 1144.0 W/m2
11:45 85.8 °F /  29.9 °C 56.5 °F /  13.6 °C 29.62in /  1002.9hPa North 4.0mph /  6.4km/h 9.0mph /  14.5km/h 37% 0.00in /  0mm 1071.0 W/m2
11:51 86.2 °F /  30.1 °C 56.1 °F /  13.4 °C 29.61in /  1002.6hPa Calm   3.0mph /  4.8km/h 36% 0.00in /  0mm 183.0 W/m2
11:56 86.5 °F /  30.3 °C 57.2 °F /  14 °C 29.61in /  1002.6hPa West 2.0mph /  3.2km/h 4.0mph /  6.4km/h 37% 0.00in /  0mm 1120.0 W/m2
12:01 87.1 °F /  30.6 °C 56.8 °F /  13.8 °C 29.61in /  1002.6hPa NNW 6.0mph /  9.7km/h 12.0mph /  19.3km/h 36% 0.00in /  0mm 1018.0 W/m2
12:06 87.3 °F /  30.7 °C 57.0 °F /  13.9 °C 29.61in /  1002.6hPa North 0.9mph /  1.4km/h 7.0mph /  11.3km/h 36% 0.00in /  0mm 338.0 W/m2
12:11 86.7 °F /  30.4 °C 57.4 °F /  14.1 °C 29.61in /  1002.6hPa WNW 2.0mph /  3.2km/h 7.0mph /  11.3km/h 37% 0.00in /  0mm 239.0 W/m2
12:16 86.7 °F /  30.4 °C 57.4 °F /  14.1 °C 29.60in /  1002.3hPa Calm   3.0mph /  4.8km/h 37% 0.00in /  0mm 323.0 W/m2
12:21 87.1 °F /  30.6 °C 57.6 °F /  14.2 °C 29.60in /  1002.3hPa WSW 2.0mph /  3.2km/h 3.0mph /  4.8km/h 37% 0.00in /  0mm 1169.0 W/m2
12:26 87.4 °F /  30.8 °C 56.5 °F /  13.6 °C 29.60in /  1002.3hPa NNW 2.0mph /  3.2km/h 6.0mph /  9.7km/h 35% 0.00in /  0mm 1213.0 W/m2
12:31 88.0 °F /  31.1 °C 56.8 °F /  13.8 °C 29.60in /  1002.3hPa NNW 8.1mph /  13km/h 8.1mph /  13km/h 35% 0.00in /  0mm 1143.0 W/m2
12:36 88.3 °F /  31.3 °C 56.5 °F /  13.6 °C 29.60in /  1002.3hPa NNW 2.0mph /  3.2km/h 6.0mph /  9.7km/h 34% 0.00in /  0mm 288.0 W/m2
12:42 88.3 °F /  31.3 °C 57.2 °F /  14 °C 29.60in /  1002.3hPa NW 2.9mph /  4.7km/h 9.0mph /  14.5km/h 35% 0.00in /  0mm 1192.0 W/m2
12:47 88.7 °F /  31.5 °C 56.7 °F /  13.7 °C 29.59in /  1001.9hPa Calm   4.0mph /  6.4km/h 34% 0.00in /  0mm 1162.0 W/m2
12:52 89.1 °F /  31.7 °C 56.3 °F /  13.5 °C 29.59in /  1001.9hPa North 2.0mph /  3.2km/h 7.0mph /  11.3km/h 33% 0.00in /  0mm 1201.0 W/m2
12:57 89.6 °F /  32 °C 55.8 °F /  13.2 °C 29.59in /  1001.9hPa NNW 4.0mph /  6.4km/h 12.0mph /  19.3km/h 32% 0.00in /  0mm 1234.0 W/m2
13:02 89.8 °F /  32.1 °C 55.9 °F /  13.3 °C 29.59in /  1001.9hPa North 4.0mph /  6.4km/h 10.0mph /  16.1km/h 32% 0.00in /  0mm 1262.0 W/m2
13:07 90.0 °F /  32.2 °C 55.2 °F /  12.9 °C 29.59in /  1001.9hPa North 0.9mph /  1.4km/h 10.0mph /  16.1km/h 31% 0.00in /  0mm 1264.0 W/m2
13:12 90.5 °F /  32.5 °C 54.0 °F /  12.2 °C 29.59in /  1001.9hPa West 0.9mph /  1.4km/h 9.0mph /  14.5km/h 29% 0.00in /  0mm 1274.0 W/m2
13:17 90.7 °F /  32.6 °C 54.1 °F /  12.3 °C 29.59in /  1001.9hPa NW 12.1mph /  19.5km/h 13.0mph /  20.9km/h 29% 0.00in /  0mm 1246.0 W/m2
13:22 90.1 °F /  32.3 °C 53.6 °F /  12 °C 29.58in /  1001.6hPa NNW 6.9mph /  11.1km/h 11.0mph /  17.7km/h 29% 0.00in /  0mm 1222.0 W/m2
13:27 90.3 °F /  32.4 °C 54.7 °F /  12.6 °C 29.58in /  1001.6hPa WNW 2.0mph /  3.2km/h 8.0mph /  12.9km/h 30% 0.00in /  0mm 1311.0 W/m2
13:33 91.0 °F /  32.8 °C 54.3 °F /  12.4 °C 29.58in /  1001.6hPa NNW 6.0mph /  9.7km/h 10.0mph /  16.1km/h 29% 0.00in /  0mm 1310.0 W/m2
13:38 91.0 °F /  32.8 °C 53.4 °F /  11.9 °C 29.58in /  1001.6hPa North 4.9mph /  7.9km/h 9.0mph /  14.5km/h 28% 0.00in /  0mm 554.0 W/m2
13:43 90.9 °F /  32.7 °C 54.1 °F /  12.3 °C 29.57in /  1001.2hPa NNW 2.0mph /  3.2km/h 9.0mph /  14.5km/h 29% 0.00in /  0mm 346.0 W/m2
13:48 90.3 °F /  32.4 °C 53.8 °F /  12.1 °C 29.57in /  1001.2hPa WNW 2.9mph /  4.7km/h 11.0mph /  17.7km/h 29% 0.00in /  0mm 352.0 W/m2
13:53 89.8 °F /  32.1 °C 54.1 °F /  12.3 °C 29.57in /  1001.2hPa Calm   4.0mph /  6.4km/h 30% 0.00in /  0mm 330.0 W/m2
13:58 89.2 °F /  31.8 °C 54.7 °F /  12.6 °C 29.57in /  1001.2hPa NNE 4.0mph /  6.4km/h 5.0mph /  8km/h 31% 0.00in /  0mm 316.0 W/m2
14:03 88.9 °F /  31.6 °C 52.5 °F /  11.4 °C 29.57in /  1001.2hPa North 2.0mph /  3.2km/h 5.0mph /  8km/h 29% 0.00in /  0mm 336.0 W/m2
14:08 88.5 °F /  31.4 °C 52.2 °F /  11.2 °C 29.57in /  1001.2hPa Calm   6.0mph /  9.7km/h 29% 0.00in /  0mm 330.0 W/m2
14:13 88.2 °F /  31.2 °C 52.0 °F /  11.1 °C 29.57in /  1001.2hPa North 2.9mph /  4.7km/h 10.0mph /  16.1km/h 29% 0.00in /  0mm 246.0 W/m2
14:19 88.0 °F /  31.1 °C 51.8 °F /  11 °C 29.57in /  1001.2hPa NW 0.9mph /  1.4km/h 7.0mph /  11.3km/h 29% 0.00in /  0mm 163.0 W/m2
14:25 87.4 °F /  30.8 °C 51.3 °F /  10.7 °C 29.57in /  1001.2hPa NE 2.0mph /  3.2km/h 3.0mph /  4.8km/h 29% 0.00in /  0mm 178.0 W/m2
14:30 87.1 °F /  30.6 °C 50.9 °F /  10.5 °C 29.57in /  1001.2hPa NNW 4.0mph /  6.4km/h 6.0mph /  9.7km/h 29% 0.00in /  0mm 155.0 W/m2
14:35 86.5 °F /  30.3 °C 51.4 °F /  10.8 °C 29.57in /  1001.2hPa NNW 2.9mph /  4.7km/h 4.0mph /  6.4km/h 30% 0.00in /  0mm 174.0 W/m2
14:41 86.4 °F /  30.2 °C 51.3 °F /  10.7 °C 29.57in /  1001.2hPa NNE 2.9mph /  4.7km/h 6.0mph /  9.7km/h 30% 0.00in /  0mm 294.0 W/m2
14:47 86.2 °F /  30.1 °C 55.4 °F /  13 °C 29.57in /  1001.2hPa NNE 2.0mph /  3.2km/h 6.0mph /  9.7km/h 35% 0.00in /  0mm 353.0 W/m2
14:52 86.4 °F /  30.2 °C 53.8 °F /  12.1 °C 29.56in /  1000.9hPa NNW 2.0mph /  3.2km/h 4.0mph /  6.4km/h 33% 0.00in /  0mm 302.0 W/m2
14:57 86.4 °F /  30.2 °C 51.3 °F /  10.7 °C 29.57in /  1001.2hPa ESE 0.9mph /  1.4km/h 7.0mph /  11.3km/h 30% 0.00in /  0mm 178.0 W/m2
15:02 86.2 °F /  30.1 °C 52.0 °F /  11.1 °C 29.57in /  1001.2hPa SSE 2.9mph /  4.7km/h 5.0mph /  8km/h 31% 0.00in /  0mm 105.0 W/m2
15:07 85.8 °F /  29.9 °C 51.6 °F /  10.9 °C 29.57in /  1001.2hPa Calm   3.0mph /  4.8km/h 31% 0.00in /  0mm 88.0 W/m2
15:12 85.6 °F /  29.8 °C 51.6 °F /  10.9 °C 29.57in /  1001.2hPa NNW 2.0mph /  3.2km/h 7.0mph /  11.3km/h 31% 0.00in /  0mm 72.0 W/m2
15:17 85.3 °F /  29.6 °C 51.3 °F /  10.7 °C 29.57in /  1001.2hPa NNW 2.9mph /  4.7km/h 4.0mph /  6.4km/h 31% 0.00in /  0mm 58.0 W/m2
15:22 84.9 °F /  29.4 °C 51.8 °F /  11 °C 29.56in /  1000.9hPa Calm   1.0mph /  1.6km/h 32% 0.00in /  0mm 46.0 W/m2
15:27 84.7 °F /  29.3 °C 52.5 °F /  11.4 °C 29.57in /  1001.2hPa WNW 8.1mph /  13km/h 8.1mph /  13km/h 33% 0.00in /  0mm 37.0 W/m2
15:32 83.8 °F /  28.8 °C 56.3 °F /  13.5 °C 29.57in /  1001.2hPa WSW 8.1mph /  13km/h 10.0mph /  16.1km/h 39% 0.00in /  0mm 25.0 W/m2
15:37 81.9 °F /  27.7 °C 55.9 °F /  13.3 °C 29.58in /  1001.6hPa West 2.9mph /  4.7km/h 7.0mph /  11.3km/h 41% 0.00in /  0mm 21.0 W/m2
15:42 80.4 °F /  26.9 °C 55.2 °F /  12.9 °C 29.58in /  1001.6hPa WSW 4.0mph /  6.4km/h 7.0mph /  11.3km/h 42% 0.00in /  0mm 19.0 W/m2
15:47 79.3 °F /  26.3 °C 61.2 °F /  16.2 °C 29.59in /  1001.9hPa West 0.9mph /  1.4km/h 8.0mph /  12.9km/h 54% 0.01in /  0.25mm 25.0 W/m2
15:52 77.7 °F /  25.4 °C 62.8 °F /  17.1 °C 29.59in /  1001.9hPa Calm   7.0mph /  11.3km/h 60% 0.03in /  0.76mm 28.0 W/m2
15:57 75.6 °F /  24.2 °C 62.6 °F /  17 °C 29.59in /  1001.9hPa West 2.9mph /  4.7km/h 8.0mph /  12.9km/h 64% 0.07in /  1.78mm 32.0 W/m2
16:03 73.0 °F /  22.8 °C 63.1 °F /  17.3 °C 29.59in /  1001.9hPa SSW 0.9mph /  1.4km/h 1.0mph /  1.6km/h 71% 0.08in /  2.03mm 26.0 W/m2
16:08 72.0 °F /  22.2 °C 63.7 °F /  17.6 °C 29.59in /  1001.9hPa Calm   1.0mph /  1.6km/h 75% 0.08in /  2.03mm 21.0 W/m2
16:13 71.1 °F /  21.7 °C 63.9 °F /  17.7 °C 29.58in /  1001.6hPa NE 0.9mph /  1.4km/h 2.0mph /  3.2km/h 78% 0.08in /  2.03mm 19.0 W/m2
16:19 70.3 °F /  21.3 °C 64.2 °F /  17.9 °C 29.58in /  1001.6hPa Calm     81% 0.08in /  2.03mm 16.0 W/m2
16:24 70.0 °F /  21.1 °C 64.6 °F /  18.1 °C 29.58in /  1001.6hPa Calm     83% 0.08in /  2.03mm 14.0 W/m2
16:29 69.6 °F /  20.9 °C 64.6 °F /  18.1 °C 29.58in /  1001.6hPa NNW 0.9mph /  1.4km/h 2.0mph /  3.2km/h 84% 0.08in /  2.03mm 12.0 W/m2
16:34 69.4 °F /  20.8 °C 64.4 °F /  18 °C 29.58in /  1001.6hPa NW 0.9mph /  1.4km/h 3.0mph /  4.8km/h 84% 0.08in /  2.03mm 11.0 W/m2
16:39 69.4 °F /  20.8 °C 64.4 °F /  18 °C 29.58in /  1001.6hPa Calm   1.0mph /  1.6km/h 84% 0.08in /  2.03mm 11.0 W/m2
16:44 69.3 °F /  20.7 °C 64.2 °F /  17.9 °C 29.58in /  1001.6hPa Calm   4.0mph /  6.4km/h 84% 0.08in /  2.03mm 14.0 W/m2
16:49 69.1 °F /  20.6 °C 62.6 °F /  17 °C 29.57in /  1001.2hPa Calm   1.0mph /  1.6km/h 80% 0.07in /  1.78mm 18.0 W/m2
16:54 69.1 °F /  20.6 °C 62.6 °F /  17 °C 29.57in /  1001.2hPa Calm   1.0mph /  1.6km/h 80% 0.02in /  0.51mm 19.0 W/m2
17:00 68.9 °F /  20.5 °C 62.4 °F /  16.9 °C 29.58in /  1001.6hPa Calm   2.0mph /  3.2km/h 80% 0.01in /  0.25mm 18.0 W/m2
17:05 68.9 °F /  20.5 °C 62.1 °F /  16.7 °C 29.57in /  1001.2hPa East 2.0mph /  3.2km/h 3.0mph /  4.8km/h 79% 0.00in /  0mm 19.0 W/m2
17:10 68.7 °F /  20.4 °C 62.2 °F /  16.8 °C 29.58in /  1001.6hPa Calm   3.0mph /  4.8km/h 80% 0.00in /  0mm 21.0 W/m2
17:15 68.7 °F /  20.4 °C 61.9 °F /  16.6 °C 29.58in /  1001.6hPa NE 0.9mph /  1.4km/h 3.0mph /  4.8km/h 79% 0.00in /  0mm 19.0 W/m2
17:20 68.7 °F /  20.4 °C 62.2 °F /  16.8 °C 29.58in /  1001.6hPa Calm   2.0mph /  3.2km/h 80% 0.00in /  0mm 21.0 W/m2
17:25 68.5 °F /  20.3 °C 62.1 °F /  16.7 °C 29.58in /  1001.6hPa ESE 0.9mph /  1.4km/h 3.0mph /  4.8km/h 80% 0.00in /  0mm 23.0 W/m2
17:30 68.5 °F /  20.3 °C 61.3 °F /  16.3 °C 29.58in /  1001.6hPa Calm   1.0mph /  1.6km/h 78% 0.00in /  0mm 25.0 W/m2
17:35 68.5 °F /  20.3 °C 62.1 °F /  16.7 °C 29.59in /  1001.9hPa Calm     80% 0.00in /  0mm 28.0 W/m2
17:41 68.5 °F /  20.3 °C 61.0 °F /  16.1 °C 29.59in /  1001.9hPa Calm   1.0mph /  1.6km/h 77% 0.00in /  0mm 30.0 W/m2
17:46 68.5 °F /  20.3 °C 60.6 °F /  15.9 °C 29.59in /  1001.9hPa Calm   1.0mph /  1.6km/h 76% 0.00in /  0mm 32.0 W/m2
17:51 68.5 °F /  20.3 °C 61.0 °F /  16.1 °C 29.59in /  1001.9hPa Calm     77% 0.00in /  0mm 35.0 W/m2
17:57 69.1 °F /  20.6 °C 60.4 °F /  15.8 °C 29.59in /  1001.9hPa Calm   3.0mph /  4.8km/h 74% 0.00in /  0mm 40.0 W/m2
18:02 69.3 °F /  20.7 °C 59.9 °F /  15.5 °C 29.59in /  1001.9hPa Calm     72% 0.00in /  0mm 40.0 W/m2
18:07 69.3 °F /  20.7 °C 60.3 °F /  15.7 °C 29.59in /  1001.9hPa Calm     73% 0.00in /  0mm 39.0 W/m2
18:13 69.3 °F /  20.7 °C 58.6 °F /  14.8 °C 29.59in /  1001.9hPa WSW 0.9mph /  1.4km/h 3.0mph /  4.8km/h 69% 0.00in /  0mm 35.0 W/m2
18:18 69.6 °F /  20.9 °C 59.4 °F /  15.2 °C 29.59in /  1001.9hPa Calm   1.0mph /  1.6km/h 70% 0.00in /  0mm 39.0 W/m2
18:23 70.0 °F /  21.1 °C 60.1 °F /  15.6 °C 29.58in /  1001.6hPa Calm     71% 0.00in /  0mm 42.0 W/m2
18:28 70.0 °F /  21.1 °C 59.7 °F /  15.4 °C 29.58in /  1001.6hPa Calm     70% 0.00in /  0mm 44.0 W/m2
18:33 70.2 °F /  21.2 °C 60.3 °F /  15.7 °C 29.58in /  1001.6hPa Calm     71% 0.00in /  0mm 40.0 W/m2
18:39 70.2 °F /  21.2 °C 59.9 °F /  15.5 °C 29.59in /  1001.9hPa Calm   2.0mph /  3.2km/h 70% 0.00in /  0mm 40.0 W/m2
18:44 70.3 °F /  21.3 °C 60.1 °F /  15.6 °C 29.59in /  1001.9hPa SW 0.9mph /  1.4km/h 1.0mph /  1.6km/h 70% 0.00in /  0mm 40.0 W/m2
18:49 70.5 °F /  21.4 °C 59.4 °F /  15.2 °C 29.59in /  1001.9hPa Calm     68% 0.00in /  0mm 42.0 W/m2
18:55 70.5 °F /  21.4 °C 58.6 °F /  14.8 °C 29.59in /  1001.9hPa Calm     66% 0.00in /  0mm 60.0 W/m2
19:00 70.9 °F /  21.6 °C 59.0 °F /  15 °C 29.59in /  1001.9hPa Calm     66% 0.00in /  0mm 72.0 W/m2
19:05 71.6 °F /  22 °C 59.7 °F /  15.4 °C 29.59in /  1001.9hPa Calm   2.0mph /  3.2km/h 66% 0.00in /  0mm 70.0 W/m2
19:11 72.7 °F /  22.6 °C 60.3 °F /  15.7 °C 29.59in /  1001.9hPa Calm   1.0mph /  1.6km/h 65% 0.00in /  0mm 46.0 W/m2
19:16 73.2 °F /  22.9 °C 59.9 °F /  15.5 °C 29.59in /  1001.9hPa Calm     63% 0.00in /  0mm 40.0 W/m2
19:21 73.6 °F /  23.1 °C 60.3 °F /  15.7 °C 29.59in /  1001.9hPa Calm     63% 0.00in /  0mm 35.0 W/m2
19:26 73.8 °F /  23.2 °C 60.4 °F /  15.8 °C 29.59in /  1001.9hPa Calm     63% 0.00in /  0mm 26.0 W/m2
19:31 73.8 °F /  23.2 °C 59.5 °F /  15.3 °C 29.59in /  1001.9hPa Calm   1.0mph /  1.6km/h 61% 0.00in /  0mm 16.0 W/m2
19:36 73.6 °F /  23.1 °C 59.7 °F /  15.4 °C 29.60in /  1002.3hPa WSW 0.9mph /  1.4km/h 3.0mph /  4.8km/h 62% 0.00in /  0mm 7.0 W/m2
19:41 73.4 °F /  23 °C 60.1 °F /  15.6 °C 29.60in /  1002.3hPa Calm   3.0mph /  4.8km/h 63% 0.00in /  0mm 0.0 W/m2
19:46 73.2 °F /  22.9 °C 59.9 °F /  15.5 °C 29.61in /  1002.6hPa Calm   1.0mph /  1.6km/h 63% 0.00in /  0mm 0.0 W/m2
19:52 73.0 °F /  22.8 °C 60.1 °F /  15.6 °C 29.62in /  1002.9hPa Calm   1.0mph /  1.6km/h 64% 0.00in /  0mm 0.0 W/m2
19:57 72.9 °F /  22.7 °C 59.9 °F /  15.5 °C 29.63in /  1003.3hPa Calm     64% 0.00in /  0mm 0.0 W/m2
20:02 72.9 °F /  22.7 °C 60.4 °F /  15.8 °C 29.63in /  1003.3hPa Calm     65% 0.00in /  0mm 0.0 W/m2
20:08 72.9 °F /  22.7 °C 60.4 °F /  15.8 °C 29.63in /  1003.3hPa Calm     65% 0.00in /  0mm 0.0 W/m2
20:13 72.7 °F /  22.6 °C 60.6 °F /  15.9 °C 29.63in /  1003.3hPa Calm     66% 0.00in /  0mm 0.0 W/m2
20:18 72.7 °F /  22.6 °C 60.3 °F /  15.7 °C 29.64in /  1003.6hPa Calm     65% 0.00in /  0mm 0.0 W/m2
20:24 72.7 °F /  22.6 °C 60.6 °F /  15.9 °C 29.63in /  1003.3hPa Calm     66% 0.00in /  0mm 0.0 W/m2
20:29 72.7 °F /  22.6 °C 60.6 °F /  15.9 °C 29.64in /  1003.6hPa Calm     66% 0.00in /  0mm 0.0 W/m2
20:34 72.5 °F /  22.5 °C 60.1 °F /  15.6 °C 29.64in /  1003.6hPa Calm     65% 0.00in /  0mm 0.0 W/m2
20:39 72.5 °F /  22.5 °C 60.1 °F /  15.6 °C 29.64in /  1003.6hPa Calm     65% 0.00in /  0mm 0.0 W/m2
20:44 72.3 °F /  22.4 °C 60.3 °F /  15.7 °C 29.64in /  1003.6hPa Calm   1.0mph /  1.6km/h 66% 0.00in /  0mm 0.0 W/m2
20:50 72.3 °F /  22.4 °C 61.5 °F /  16.4 °C 29.65in /  1003.9hPa Calm   1.0mph /  1.6km/h 69% 0.00in /  0mm 0.0 W/m2
20:55 72.3 °F /  22.4 °C 62.1 °F /  16.7 °C 29.65in /  1003.9hPa WSW 2.0mph /  3.2km/h 2.0mph /  3.2km/h 70% 0.00in /  0mm 0.0 W/m2
21:00 72.1 °F /  22.3 °C 61.9 °F /  16.6 °C 29.65in /  1003.9hPa Calm   1.0mph /  1.6km/h 70% 0.00in /  0mm 0.0 W/m2
21:06 72.0 °F /  22.2 °C 62.1 °F /  16.7 °C 29.66in /  1004.3hPa Calm   1.0mph /  1.6km/h 71% 0.00in /  0mm 0.0 W/m2
21:11 71.8 °F /  22.1 °C 61.9 °F /  16.6 °C 29.66in /  1004.3hPa Calm     71% 0.00in /  0mm 0.0 W/m2
21:16 71.6 °F /  22 °C 61.7 °F /  16.5 °C 29.66in /  1004.3hPa Calm   1.0mph /  1.6km/h 71% 0.00in /  0mm 0.0 W/m2
21:21 71.4 °F /  21.9 °C 61.5 °F /  16.4 °C 29.67in /  1004.6hPa Calm   1.0mph /  1.6km/h 71% 0.00in /  0mm 0.0 W/m2
21:26 71.2 °F /  21.8 °C 61.3 °F /  16.3 °C 29.67in /  1004.6hPa Calm   1.0mph /  1.6km/h 71% 0.00in /  0mm 0.0 W/m2
21:32 71.1 °F /  21.7 °C 61.5 °F /  16.4 °C 29.67in /  1004.6hPa Calm   1.0mph /  1.6km/h 72% 0.00in /  0mm 0.0 W/m2
21:37 70.9 °F /  21.6 °C 61.9 °F /  16.6 °C 29.67in /  1004.6hPa Calm   1.0mph /  1.6km/h 73% 0.00in /  0mm 0.0 W/m2
21:42 70.7 °F /  21.5 °C 61.7 °F /  16.5 °C 29.67in /  1004.6hPa Calm   1.0mph /  1.6km/h 73% 0.00in /  0mm 0.0 W/m2
21:47 70.5 °F /  21.4 °C 61.0 °F /  16.1 °C 29.67in /  1004.6hPa Calm     72% 0.00in /  0mm 0.0 W/m2
21:53 70.3 °F /  21.3 °C 60.8 °F /  16 °C 29.67in /  1004.6hPa Calm     72% 0.00in /  0mm 0.0 W/m2
21:58 70.3 °F /  21.3 °C 61.3 °F /  16.3 °C 29.67in /  1004.6hPa Calm     73% 0.00in /  0mm 0.0 W/m2
22:03 70.2 °F /  21.2 °C 61.2 °F /  16.2 °C 29.68in /  1005hPa ESE 0.9mph /  1.4km/h 1.0mph /  1.6km/h 73% 0.00in /  0mm 0.0 W/m2
22:09 70.2 °F /  21.2 °C 61.2 °F /  16.2 °C 29.68in /  1005hPa Calm     73% 0.00in /  0mm 0.0 W/m2
22:14 70.0 °F /  21.1 °C 61.3 °F /  16.3 °C 29.68in /  1005hPa Calm     74% 0.00in /  0mm 0.0 W/m2
22:19 70.0 °F /  21.1 °C 61.7 °F /  16.5 °C 29.68in /  1005hPa Calm     75% 0.00in /  0mm 0.0 W/m2
22:24 70.0 °F /  21.1 °C 61.3 °F /  16.3 °C 29.68in /  1005hPa Calm   1.0mph /  1.6km/h 74% 0.00in /  0mm 0.0 W/m2
22:29 69.8 °F /  21 °C 59.9 °F /  15.5 °C 29.68in /  1005hPa Calm   2.0mph /  3.2km/h 71% 0.00in /  0mm 0.0 W/m2
22:34 69.8 °F /  21 °C 59.9 °F /  15.5 °C 29.68in /  1005hPa Calm     71% 0.00in /  0mm 0.0 W/m2
22:39 69.8 °F /  21 °C 59.9 °F /  15.5 °C 29.68in /  1005hPa Calm   1.0mph /  1.6km/h 71% 0.00in /  0mm 0.0 W/m2
22:44 69.8 °F /  21 °C 59.9 °F /  15.5 °C 29.68in /  1005hPa Calm     71% 0.00in /  0mm 0.0 W/m2
22:50 69.8 °F /  21 °C 59.9 °F /  15.5 °C 29.68in /  1005hPa Calm     71% 0.00in /  0mm 0.0 W/m2
22:55 69.6 °F /  20.9 °C 59.7 °F /  15.4 °C 29.68in /  1005hPa Calm     71% 0.00in /  0mm 0.0 W/m2
23:00 69.6 °F /  20.9 °C 59.7 °F /  15.4 °C 29.68in /  1005hPa Calm     71% 0.00in /  0mm 0.0 W/m2
23:05 69.6 °F /  20.9 °C 60.3 °F /  15.7 °C 29.68in /  1005hPa Calm     72% 0.00in /  0mm 0.0 W/m2
23:10 69.4 °F /  20.8 °C 60.1 °F /  15.6 °C 29.68in /  1005hPa Calm     72% 0.00in /  0mm 0.0 W/m2
23:15 69.3 °F /  20.7 °C 60.3 °F /  15.7 °C 29.67in /  1004.6hPa Calm     73% 0.00in /  0mm 0.0 W/m2
23:20 69.3 °F /  20.7 °C 60.6 °F /  15.9 °C 29.68in /  1005hPa Calm     74% 0.00in /  0mm 0.0 W/m2
23:25 69.1 °F /  20.6 °C 60.4 °F /  15.8 °C 29.68in /  1005hPa Calm     74% 0.00in /  0mm 0.0 W/m2
23:31 68.7 °F /  20.4 °C 60.1 °F /  15.6 °C 29.67in /  1004.6hPa Calm     74% 0.00in /  0mm 0.0 W/m2
23:36 68.4 °F /  20.2 °C 60.1 °F /  15.6 °C 29.67in /  1004.6hPa Calm     75% 0.00in /  0mm 0.0 W/m2
23:41 68.2 °F /  20.1 °C 59.9 °F /  15.5 °C 29.67in /  1004.6hPa Calm     75% 0.00in /  0mm 0.0 W/m2
23:46 68.0 °F /  20 °C 60.1 °F /  15.6 °C 29.67in /  1004.6hPa ENE 0.9mph /  1.4km/h 2.0mph /  3.2km/h 76% 0.00in /  0mm 0.0 W/m2
23:51 67.8 °F /  19.9 °C 60.3 °F /  15.7 °C 29.67in /  1004.6hPa Calm   1.0mph /  1.6km/h 77% 0.00in /  0mm 0.0 W/m2
23:56 67.6 °F /  19.8 °C 60.3 °F /  15.7 °C 29.67in /  1004.6hPa Calm   2.0mph /  3.2km/h 77% 0.00in /  0mm 0.0 W/m2
Olympia, Windhoek, Namibia
Compliments of Weather Underground - 3.25 mb